sensor_id;sensor_type;location;lat;lon;timestamp;temperature;humidity
16521;DHT22;8373;48.110;11.522;2023-04-24T00:02:06;14.00;85.30
16521;DHT22;8373;48.110;11.522;2023-04-24T00:04:36;14.00;85.20
16521;DHT22;8373;48.110;11.522;2023-04-24T00:07:07;14.00;85.60
16521;DHT22;8373;48.110;11.522;2023-04-24T00:09:34;14.10;85.40
16521;DHT22;8373;48.110;11.522;2023-04-24T00:12:01;14.00;85.50
16521;DHT22;8373;48.110;11.522;2023-04-24T00:14:30;14.00;84.90
16521;DHT22;8373;48.110;11.522;2023-04-24T00:16:57;14.10;84.50
16521;DHT22;8373;48.110;11.522;2023-04-24T00:19:23;14.10;84.10
16521;DHT22;8373;48.110;11.522;2023-04-24T00:21:50;14.00;83.90
16521;DHT22;8373;48.110;11.522;2023-04-24T00:24:19;14.00;84.00
16521;DHT22;8373;48.110;11.522;2023-04-24T00:26:46;13.90;84.00
16521;DHT22;8373;48.110;11.522;2023-04-24T00:29:13;13.90;84.20
16521;DHT22;8373;48.110;11.522;2023-04-24T00:31:40;13.80;84.20
16521;DHT22;8373;48.110;11.522;2023-04-24T00:34:07;13.80;84.10
16521;DHT22;8373;48.110;11.522;2023-04-24T00:36:36;13.70;83.60
16521;DHT22;8373;48.110;11.522;2023-04-24T00:39:03;13.60;83.60
16521;DHT22;8373;48.110;11.522;2023-04-24T00:41:31;13.60;84.10
16521;DHT22;8373;48.110;11.522;2023-04-24T00:43:58;13.60;84.10
16521;DHT22;8373;48.110;11.522;2023-04-24T00:46:25;13.60;84.40
16521;DHT22;8373;48.110;11.522;2023-04-24T00:48:52;13.60;84.20
16521;DHT22;8373;48.110;11.522;2023-04-24T00:51:19;13.70;84.30
16521;DHT22;8373;48.110;11.522;2023-04-24T00:53:46;13.70;84.40
16521;DHT22;8373;48.110;11.522;2023-04-24T00:56:13;13.70;83.50
16521;DHT22;8373;48.110;11.522;2023-04-24T00:58:42;13.50;82.90
16521;DHT22;8373;48.110;11.522;2023-04-24T01:01:09;13.50;83.80
16521;DHT22;8373;48.110;11.522;2023-04-24T01:03:37;13.40;83.60
16521;DHT22;8373;48.110;11.522;2023-04-24T01:06:05;13.40;83.70
16521;DHT22;8373;48.110;11.522;2023-04-24T01:08:32;13.40;83.90
16521;DHT22;8373;48.110;11.522;2023-04-24T01:11:03;13.30;83.70
16521;DHT22;8373;48.110;11.522;2023-04-24T01:13:31;13.30;84.00
16521;DHT22;8373;48.110;11.522;2023-04-24T01:16:00;13.30;83.50
16521;DHT22;8373;48.110;11.522;2023-04-24T01:18:27;13.10;82.80
16521;DHT22;8373;48.110;11.522;2023-04-24T01:20:57;13.10;83.30
16521;DHT22;8373;48.110;11.522;2023-04-24T01:23:26;13.00;83.40
16521;DHT22;8373;48.110;11.522;2023-04-24T01:25:53;13.00;83.30
16521;DHT22;8373;48.110;11.522;2023-04-24T01:28:20;13.10;83.40
16521;DHT22;8373;48.110;11.522;2023-04-24T01:30:47;13.00;82.60
16521;DHT22;8373;48.110;11.522;2023-04-24T01:33:14;12.90;82.70
16521;DHT22;8373;48.110;11.522;2023-04-24T01:35:41;12.90;82.80
16521;DHT22;8373;48.110;11.522;2023-04-24T01:38:09;12.80;82.60
16521;DHT22;8373;48.110;11.522;2023-04-24T01:40:37;12.70;83.30
16521;DHT22;8373;48.110;11.522;2023-04-24T01:43:04;12.70;83.30
16521;DHT22;8373;48.110;11.522;2023-04-24T01:45:31;12.80;83.20
16521;DHT22;8373;48.110;11.522;2023-04-24T01:47:58;12.80;82.90
16521;DHT22;8373;48.110;11.522;2023-04-24T01:50:26;12.80;82.90
16521;DHT22;8373;48.110;11.522;2023-04-24T01:52:53;12.80;83.20
16521;DHT22;8373;48.110;11.522;2023-04-24T01:55:21;12.80;82.40
16521;DHT22;8373;48.110;11.522;2023-04-24T01:57:49;12.70;82.60
16521;DHT22;8373;48.110;11.522;2023-04-24T02:00:17;12.70;83.10
16521;DHT22;8373;48.110;11.522;2023-04-24T02:02:44;12.70;83.20
16521;DHT22;8373;48.110;11.522;2023-04-24T02:05:11;12.70;82.80
16521;DHT22;8373;48.110;11.522;2023-04-24T02:07:38;12.70;82.80
16521;DHT22;8373;48.110;11.522;2023-04-24T02:10:06;12.70;82.60
16521;DHT22;8373;48.110;11.522;2023-04-24T02:12:33;12.70;82.20
16521;DHT22;8373;48.110;11.522;2023-04-24T02:15:02;12.60;82.20
16521;DHT22;8373;48.110;11.522;2023-04-24T02:17:29;12.60;82.30
16521;DHT22;8373;48.110;11.522;2023-04-24T02:19:56;12.50;82.50
16521;DHT22;8373;48.110;11.522;2023-04-24T02:22:23;12.50;82.50
16521;DHT22;8373;48.110;11.522;2023-04-24T02:24:50;12.40;82.70
16521;DHT22;8373;48.110;11.522;2023-04-24T02:27:17;12.40;83.00
16521;DHT22;8373;48.110;11.522;2023-04-24T02:29:43;12.40;82.90
16521;DHT22;8373;48.110;11.522;2023-04-24T02:32:12;12.30;82.70
16521;DHT22;8373;48.110;11.522;2023-04-24T02:34:41;12.30;83.20
16521;DHT22;8373;48.110;11.522;2023-04-24T02:37:07;12.20;83.30
16521;DHT22;8373;48.110;11.522;2023-04-24T02:39:35;12.20;83.30
16521;DHT22;8373;48.110;11.522;2023-04-24T02:42:02;12.20;83.50
16521;DHT22;8373;48.110;11.522;2023-04-24T02:44:29;12.30;84.00
16521;DHT22;8373;48.110;11.522;2023-04-24T02:46:56;12.30;83.80
16521;DHT22;8373;48.110;11.522;2023-04-24T02:49:24;12.40;83.50
16521;DHT22;8373;48.110;11.522;2023-04-24T02:51:51;12.40;83.50
16521;DHT22;8373;48.110;11.522;2023-04-24T02:54:18;12.40;82.80
16521;DHT22;8373;48.110;11.522;2023-04-24T02:56:45;12.30;83.20
16521;DHT22;8373;48.110;11.522;2023-04-24T02:59:12;12.20;83.20
16521;DHT22;8373;48.110;11.522;2023-04-24T03:01:39;12.10;83.70
16521;DHT22;8373;48.110;11.522;2023-04-24T03:04:06;12.10;84.70
16521;DHT22;8373;48.110;11.522;2023-04-24T03:06:34;12.10;84.80
16521;DHT22;8373;48.110;11.522;2023-04-24T03:09:01;12.20;85.00
16521;DHT22;8373;48.110;11.522;2023-04-24T03:11:29;12.20;85.00
16521;DHT22;8373;48.110;11.522;2023-04-24T03:13:55;12.10;85.30
16521;DHT22;8373;48.110;11.522;2023-04-24T03:16:22;12.00;85.00
16521;DHT22;8373;48.110;11.522;2023-04-24T03:18:49;11.90;85.40
16521;DHT22;8373;48.110;11.522;2023-04-24T03:21:16;11.90;86.20
16521;DHT22;8373;48.110;11.522;2023-04-24T03:23:45;11.90;86.30
16521;DHT22;8373;48.110;11.522;2023-04-24T03:26:12;11.80;87.40
16521;DHT22;8373;48.110;11.522;2023-04-24T03:28:38;11.80;87.30
16521;DHT22;8373;48.110;11.522;2023-04-24T03:31:06;12.00;87.80
16521;DHT22;8373;48.110;11.522;2023-04-24T03:33:33;12.00;87.10
16521;DHT22;8373;48.110;11.522;2023-04-24T03:36:01;12.00;87.50
16521;DHT22;8373;48.110;11.522;2023-04-24T03:38:28;12.00;87.30
16521;DHT22;8373;48.110;11.522;2023-04-24T03:40:56;11.90;87.70
16521;DHT22;8373;48.110;11.522;2023-04-24T03:43:23;11.90;88.40
16521;DHT22;8373;48.110;11.522;2023-04-24T03:45:50;11.80;88.60
16521;DHT22;8373;48.110;11.522;2023-04-24T03:48:17;11.80;88.90
16521;DHT22;8373;48.110;11.522;2023-04-24T03:50:44;11.80;88.90
16521;DHT22;8373;48.110;11.522;2023-04-24T03:53:11;11.80;89.30
16521;DHT22;8373;48.110;11.522;2023-04-24T03:55:38;11.90;89.50
16521;DHT22;8373;48.110;11.522;2023-04-24T03:58:06;12.00;89.50
16521;DHT22;8373;48.110;11.522;2023-04-24T04:00:33;12.00;88.90
16521;DHT22;8373;48.110;11.522;2023-04-24T04:03:00;12.00;88.60
16521;DHT22;8373;48.110;11.522;2023-04-24T04:05:27;12.10;88.70
16521;DHT22;8373;48.110;11.522;2023-04-24T04:07:54;12.10;88.30
16521;DHT22;8373;48.110;11.522;2023-04-24T04:10:21;12.10;88.30
16521;DHT22;8373;48.110;11.522;2023-04-24T04:12:48;12.00;87.90
16521;DHT22;8373;48.110;11.522;2023-04-24T04:15:16;12.00;88.40
16521;DHT22;8373;48.110;11.522;2023-04-24T04:17:43;11.90;88.60
16521;DHT22;8373;48.110;11.522;2023-04-24T04:20:11;11.90;88.90
16521;DHT22;8373;48.110;11.522;2023-04-24T04:22:39;12.00;89.20
16521;DHT22;8373;48.110;11.522;2023-04-24T04:25:06;12.00;88.90
16521;DHT22;8373;48.110;11.522;2023-04-24T04:27:34;12.00;88.90
16521;DHT22;8373;48.110;11.522;2023-04-24T04:30:02;12.10;89.00
16521;DHT22;8373;48.110;11.522;2023-04-24T04:32:31;12.10;88.30
16521;DHT22;8373;48.110;11.522;2023-04-24T04:34:59;12.10;88.00
16521;DHT22;8373;48.110;11.522;2023-04-24T04:37:28;12.10;87.70
16521;DHT22;8373;48.110;11.522;2023-04-24T04:39:55;12.10;87.80
16521;DHT22;8373;48.110;11.522;2023-04-24T04:42:23;12.10;87.90
16521;DHT22;8373;48.110;11.522;2023-04-24T04:44:50;12.10;88.20
16521;DHT22;8373;48.110;11.522;2023-04-24T04:47:18;12.10;88.00
16521;DHT22;8373;48.110;11.522;2023-04-24T04:49:48;12.20;88.00
16521;DHT22;8373;48.110;11.522;2023-04-24T04:52:16;12.20;87.90
16521;DHT22;8373;48.110;11.522;2023-04-24T04:54:43;12.20;87.30
16521;DHT22;8373;48.110;11.522;2023-04-24T04:57:11;12.20;87.60
16521;DHT22;8373;48.110;11.522;2023-04-24T04:59:38;12.20;87.10
16521;DHT22;8373;48.110;11.522;2023-04-24T05:02:06;12.10;87.10
16521;DHT22;8373;48.110;11.522;2023-04-24T05:04:33;12.10;86.90
16521;DHT22;8373;48.110;11.522;2023-04-24T05:07:01;12.10;86.70
16521;DHT22;8373;48.110;11.522;2023-04-24T05:09:29;12.10;86.90
16521;DHT22;8373;48.110;11.522;2023-04-24T05:11:56;12.10;86.40
16521;DHT22;8373;48.110;11.522;2023-04-24T05:14:23;12.10;86.40
16521;DHT22;8373;48.110;11.522;2023-04-24T05:16:50;12.00;86.10
16521;DHT22;8373;48.110;11.522;2023-04-24T05:19:17;12.00;86.00
16521;DHT22;8373;48.110;11.522;2023-04-24T05:21:44;11.90;86.40
16521;DHT22;8373;48.110;11.522;2023-04-24T05:24:12;11.80;86.40
16521;DHT22;8373;48.110;11.522;2023-04-24T05:26:39;11.80;86.70
16521;DHT22;8373;48.110;11.522;2023-04-24T05:29:06;11.80;86.60
16521;DHT22;8373;48.110;11.522;2023-04-24T05:31:33;11.70;86.60
16521;DHT22;8373;48.110;11.522;2023-04-24T05:34:00;11.80;86.80
16521;DHT22;8373;48.110;11.522;2023-04-24T05:36:27;11.80;86.60
16521;DHT22;8373;48.110;11.522;2023-04-24T05:38:54;11.80;87.10
16521;DHT22;8373;48.110;11.522;2023-04-24T05:41:23;11.80;86.90
16521;DHT22;8373;48.110;11.522;2023-04-24T05:43:50;11.80;86.90
16521;DHT22;8373;48.110;11.522;2023-04-24T05:46:17;11.90;88.50
16521;DHT22;8373;48.110;11.522;2023-04-24T05:48:44;12.00;89.30
16521;DHT22;8373;48.110;11.522;2023-04-24T05:51:11;12.00;88.90
16521;DHT22;8373;48.110;11.522;2023-04-24T05:53:38;12.10;88.40
16521;DHT22;8373;48.110;11.522;2023-04-24T05:56:05;12.20;87.70
16521;DHT22;8373;48.110;11.522;2023-04-24T05:58:33;12.20;86.70
16521;DHT22;8373;48.110;11.522;2023-04-24T06:01:00;12.30;86.30
16521;DHT22;8373;48.110;11.522;2023-04-24T06:03:28;12.40;86.50
16521;DHT22;8373;48.110;11.522;2023-04-24T06:05:55;12.50;86.10
16521;DHT22;8373;48.110;11.522;2023-04-24T06:08:22;12.50;84.90
16521;DHT22;8373;48.110;11.522;2023-04-24T06:10:49;12.60;84.80
16521;DHT22;8373;48.110;11.522;2023-04-24T06:13:16;12.70;84.90
16521;DHT22;8373;48.110;11.522;2023-04-24T06:15:44;12.70;83.80
16521;DHT22;8373;48.110;11.522;2023-04-24T06:18:11;12.70;83.90
16521;DHT22;8373;48.110;11.522;2023-04-24T06:20:39;12.80;84.90
16521;DHT22;8373;48.110;11.522;2023-04-24T06:23:05;13.00;84.50
16521;DHT22;8373;48.110;11.522;2023-04-24T06:25:33;12.90;82.60
16521;DHT22;8373;48.110;11.522;2023-04-24T06:28:00;12.90;82.80
16521;DHT22;8373;48.110;11.522;2023-04-24T06:30:27;12.90;83.50
16521;DHT22;8373;48.110;11.522;2023-04-24T06:32:55;12.90;82.80
16521;DHT22;8373;48.110;11.522;2023-04-24T06:35:22;12.90;82.50
16521;DHT22;8373;48.110;11.522;2023-04-24T06:37:50;12.90;82.80
16521;DHT22;8373;48.110;11.522;2023-04-24T06:40:17;13.00;82.10
16521;DHT22;8373;48.110;11.522;2023-04-24T06:42:45;13.20;82.00
16521;DHT22;8373;48.110;11.522;2023-04-24T06:45:12;13.30;81.50
16521;DHT22;8373;48.110;11.522;2023-04-24T06:47:38;13.40;81.70
16521;DHT22;8373;48.110;11.522;2023-04-24T06:50:08;13.60;81.50
16521;DHT22;8373;48.110;11.522;2023-04-24T06:52:35;13.70;80.10
16521;DHT22;8373;48.110;11.522;2023-04-24T06:55:02;13.80;79.20
16521;DHT22;8373;48.110;11.522;2023-04-24T06:57:30;13.90;78.00
16521;DHT22;8373;48.110;11.522;2023-04-24T06:59:57;14.10;78.70
16521;DHT22;8373;48.110;11.522;2023-04-24T07:02:24;14.10;76.90
16521;DHT22;8373;48.110;11.522;2023-04-24T07:04:51;13.90;76.20
16521;DHT22;8373;48.110;11.522;2023-04-24T07:07:19;13.90;76.90
16521;DHT22;8373;48.110;11.522;2023-04-24T07:09:47;13.90;77.20
16521;DHT22;8373;48.110;11.522;2023-04-24T07:12:14;13.90;76.50
16521;DHT22;8373;48.110;11.522;2023-04-24T07:14:42;13.80;74.80
16521;DHT22;8373;48.110;11.522;2023-04-24T07:17:09;13.60;75.20
16521;DHT22;8373;48.110;11.522;2023-04-24T07:19:38;13.50;75.80
16521;DHT22;8373;48.110;11.522;2023-04-24T07:22:05;13.40;75.80
16521;DHT22;8373;48.110;11.522;2023-04-24T07:24:33;13.30;76.10
16521;DHT22;8373;48.110;11.522;2023-04-24T07:27:00;13.30;76.30
16521;DHT22;8373;48.110;11.522;2023-04-24T07:29:27;13.30;76.20
16521;DHT22;8373;48.110;11.522;2023-04-24T07:31:54;13.30;76.70
16521;DHT22;8373;48.110;11.522;2023-04-24T07:34:22;13.40;76.40
16521;DHT22;8373;48.110;11.522;2023-04-24T07:36:49;13.50;76.40
16521;DHT22;8373;48.110;11.522;2023-04-24T07:39:16;13.40;75.70
16521;DHT22;8373;48.110;11.522;2023-04-24T07:41:44;13.40;75.60
16521;DHT22;8373;48.110;11.522;2023-04-24T07:44:11;13.20;74.90
16521;DHT22;8373;48.110;11.522;2023-04-24T07:46:38;13.10;75.00
16521;DHT22;8373;48.110;11.522;2023-04-24T07:49:05;13.10;75.70
16521;DHT22;8373;48.110;11.522;2023-04-24T07:51:32;13.10;76.10
16521;DHT22;8373;48.110;11.522;2023-04-24T07:54:03;13.20;75.90
16521;DHT22;8373;48.110;11.522;2023-04-24T07:56:31;13.20;75.30
16521;DHT22;8373;48.110;11.522;2023-04-24T07:59:00;13.20;75.60
16521;DHT22;8373;48.110;11.522;2023-04-24T08:01:27;13.30;75.50
16521;DHT22;8373;48.110;11.522;2023-04-24T08:03:54;13.30;75.20
16521;DHT22;8373;48.110;11.522;2023-04-24T08:06:21;13.40;75.50
16521;DHT22;8373;48.110;11.522;2023-04-24T08:08:48;13.60;74.90
16521;DHT22;8373;48.110;11.522;2023-04-24T08:11:17;13.70;74.90
16521;DHT22;8373;48.110;11.522;2023-04-24T08:13:43;13.80;74.60
16521;DHT22;8373;48.110;11.522;2023-04-24T08:16:12;13.70;73.40
16521;DHT22;8373;48.110;11.522;2023-04-24T08:18:39;13.60;73.30
16521;DHT22;8373;48.110;11.522;2023-04-24T08:21:06;13.50;73.80
16521;DHT22;8373;48.110;11.522;2023-04-24T08:23:33;13.40;74.60
16521;DHT22;8373;48.110;11.522;2023-04-24T08:26:00;13.40;74.70
16521;DHT22;8373;48.110;11.522;2023-04-24T08:28:27;13.40;75.10
16521;DHT22;8373;48.110;11.522;2023-04-24T08:30:54;13.30;74.60
16521;DHT22;8373;48.110;11.522;2023-04-24T08:33:22;13.20;75.20
16521;DHT22;8373;48.110;11.522;2023-04-24T08:35:49;13.20;76.50
16521;DHT22;8373;48.110;11.522;2023-04-24T08:38:17;13.00;77.60
16521;DHT22;8373;48.110;11.522;2023-04-24T08:40:44;12.90;79.40
16521;DHT22;8373;48.110;11.522;2023-04-24T08:43:12;12.80;80.40
16521;DHT22;8373;48.110;11.522;2023-04-24T08:45:40;12.70;78.10
16521;DHT22;8373;48.110;11.522;2023-04-24T08:48:07;12.70;78.00
16521;DHT22;8373;48.110;11.522;2023-04-24T08:50:37;12.80;79.00
16521;DHT22;8373;48.110;11.522;2023-04-24T08:53:04;12.90;77.50
16521;DHT22;8373;48.110;11.522;2023-04-24T08:55:32;13.00;75.20
16521;DHT22;8373;48.110;11.522;2023-04-24T08:58:00;13.00;74.70
16521;DHT22;8373;48.110;11.522;2023-04-24T09:00:28;13.00;74.50
16521;DHT22;8373;48.110;11.522;2023-04-24T09:02:55;12.80;72.10
16521;DHT22;8373;48.110;11.522;2023-04-24T09:05:23;12.60;71.20
16521;DHT22;8373;48.110;11.522;2023-04-24T09:07:54;12.60;71.50
16521;DHT22;8373;48.110;11.522;2023-04-24T09:10:22;12.70;71.90
16521;DHT22;8373;48.110;11.522;2023-04-24T09:12:50;12.70;71.50
16521;DHT22;8373;48.110;11.522;2023-04-24T09:15:18;12.70;71.10
16521;DHT22;8373;48.110;11.522;2023-04-24T09:17:46;12.90;71.80
16521;DHT22;8373;48.110;11.522;2023-04-24T09:20:13;13.00;71.70
16521;DHT22;8373;48.110;11.522;2023-04-24T09:22:40;13.10;71.20
16521;DHT22;8373;48.110;11.522;2023-04-24T09:25:10;13.10;69.90
16521;DHT22;8373;48.110;11.522;2023-04-24T09:27:42;13.10;70.30
16521;DHT22;8373;48.110;11.522;2023-04-24T09:30:11;13.10;70.30
16521;DHT22;8373;48.110;11.522;2023-04-24T09:32:38;13.30;70.60
16521;DHT22;8373;48.110;11.522;2023-04-24T09:35:07;13.40;69.00
16521;DHT22;8373;48.110;11.522;2023-04-24T09:37:38;13.40;68.50
16521;DHT22;8373;48.110;11.522;2023-04-24T09:40:15;13.50;67.90
16521;DHT22;8373;48.110;11.522;2023-04-24T09:42:44;13.70;67.40
16521;DHT22;8373;48.110;11.522;2023-04-24T09:45:12;13.80;66.70
16521;DHT22;8373;48.110;11.522;2023-04-24T09:47:40;13.90;66.30
16521;DHT22;8373;48.110;11.522;2023-04-24T09:50:14;13.90;65.50
16521;DHT22;8373;48.110;11.522;2023-04-24T09:52:43;13.80;66.00
16521;DHT22;8373;48.110;11.522;2023-04-24T09:55:17;13.90;66.80
16521;DHT22;8373;48.110;11.522;2023-04-24T09:57:48;14.10;67.10
16521;DHT22;8373;48.110;11.522;2023-04-24T10:00:19;14.30;67.20
16521;DHT22;8373;48.110;11.522;2023-04-24T10:02:50;14.50;65.90
16521;DHT22;8373;48.110;11.522;2023-04-24T10:05:18;14.50;64.70
16521;DHT22;8373;48.110;11.522;2023-04-24T10:07:46;14.60;64.90
16521;DHT22;8373;48.110;11.522;2023-04-24T10:10:14;14.70;65.80
16521;DHT22;8373;48.110;11.522;2023-04-24T10:12:42;14.90;65.00
16521;DHT22;8373;48.110;11.522;2023-04-24T10:15:10;15.10;62.60
16521;DHT22;8373;48.110;11.522;2023-04-24T10:17:39;15.10;62.20
16521;DHT22;8373;48.110;11.522;2023-04-24T10:20:07;15.00;62.10
16521;DHT22;8373;48.110;11.522;2023-04-24T10:22:36;14.90;62.30
16521;DHT22;8373;48.110;11.522;2023-04-24T10:25:04;14.80;62.20
16521;DHT22;8373;48.110;11.522;2023-04-24T10:27:34;14.90;62.50
16521;DHT22;8373;48.110;11.522;2023-04-24T10:30:03;14.90;62.20
16521;DHT22;8373;48.110;11.522;2023-04-24T10:32:30;14.90;62.20
16521;DHT22;8373;48.110;11.522;2023-04-24T10:34:57;14.90;62.60
16521;DHT22;8373;48.110;11.522;2023-04-24T10:37:25;14.90;62.60
16521;DHT22;8373;48.110;11.522;2023-04-24T10:39:52;14.80;62.10
16521;DHT22;8373;48.110;11.522;2023-04-24T10:42:20;14.70;62.90
16521;DHT22;8373;48.110;11.522;2023-04-24T10:44:49;14.70;63.90
16521;DHT22;8373;48.110;11.522;2023-04-24T10:47:16;14.80;63.80
16521;DHT22;8373;48.110;11.522;2023-04-24T10:49:43;14.80;63.00
16521;DHT22;8373;48.110;11.522;2023-04-24T10:52:10;14.60;62.90
16521;DHT22;8373;48.110;11.522;2023-04-24T10:54:42;14.20;63.80
16521;DHT22;8373;48.110;11.522;2023-04-24T10:57:27;13.60;66.10
16521;DHT22;8373;48.110;11.522;2023-04-24T11:00:18;13.20;68.60
16521;DHT22;8373;48.110;11.522;2023-04-24T11:02:46;12.90;70.20
16521;DHT22;8373;48.110;11.522;2023-04-24T11:05:19;12.80;71.00
16521;DHT22;8373;48.110;11.522;2023-04-24T11:08:11;12.90;71.70
16521;DHT22;8373;48.110;11.522;2023-04-24T11:10:40;13.20;71.50
16521;DHT22;8373;48.110;11.522;2023-04-24T11:13:07;13.70;72.20
16521;DHT22;8373;48.110;11.522;2023-04-24T11:15:36;14.10;69.90
16521;DHT22;8373;48.110;11.522;2023-04-24T11:18:03;14.60;69.20
16521;DHT22;8373;48.110;11.522;2023-04-24T11:20:30;15.10;68.80
16521;DHT22;8373;48.110;11.522;2023-04-24T11:23:03;15.50;65.00
16521;DHT22;8373;48.110;11.522;2023-04-24T11:25:32;15.80;64.30
16521;DHT22;8373;48.110;11.522;2023-04-24T11:28:14;16.00;62.10
16521;DHT22;8373;48.110;11.522;2023-04-24T11:30:43;16.30;62.90
16521;DHT22;8373;48.110;11.522;2023-04-24T11:33:10;16.40;61.70
16521;DHT22;8373;48.110;11.522;2023-04-24T11:35:40;16.60;60.60
16521;DHT22;8373;48.110;11.522;2023-04-24T11:38:07;16.70;61.50
16521;DHT22;8373;48.110;11.522;2023-04-24T11:40:34;16.70;59.90
16521;DHT22;8373;48.110;11.522;2023-04-24T11:43:01;16.70;59.30
16521;DHT22;8373;48.110;11.522;2023-04-24T11:45:31;16.70;60.00
16521;DHT22;8373;48.110;11.522;2023-04-24T11:47:59;16.70;58.40
16521;DHT22;8373;48.110;11.522;2023-04-24T11:50:26;16.60;58.70
16521;DHT22;8373;48.110;11.522;2023-04-24T11:52:55;16.50;58.70
16521;DHT22;8373;48.110;11.522;2023-04-24T11:55:27;16.30;58.10
16521;DHT22;8373;48.110;11.522;2023-04-24T11:57:55;16.10;57.60
16521;DHT22;8373;48.110;11.522;2023-04-24T12:00:24;15.80;57.40
16521;DHT22;8373;48.110;11.522;2023-04-24T12:02:52;15.30;59.20
16521;DHT22;8373;48.110;11.522;2023-04-24T12:05:30;15.10;61.40
16521;DHT22;8373;48.110;11.522;2023-04-24T12:07:57;15.00;61.90
16521;DHT22;8373;48.110;11.522;2023-04-24T12:10:26;15.30;62.80
16521;DHT22;8373;48.110;11.522;2023-04-24T12:12:54;15.40;60.70
16521;DHT22;8373;48.110;11.522;2023-04-24T12:15:22;15.40;60.20
16521;DHT22;8373;48.110;11.522;2023-04-24T12:17:51;15.40;60.30
16521;DHT22;8373;48.110;11.522;2023-04-24T12:20:24;15.30;59.80
16521;DHT22;8373;48.110;11.522;2023-04-24T12:22:54;15.20;59.40
16521;DHT22;8373;48.110;11.522;2023-04-24T12:25:22;15.00;59.30
16521;DHT22;8373;48.110;11.522;2023-04-24T12:27:53;15.00;60.70
16521;DHT22;8373;48.110;11.522;2023-04-24T12:30:21;15.00;61.40
16521;DHT22;8373;48.110;11.522;2023-04-24T12:32:52;15.20;61.60
16521;DHT22;8373;48.110;11.522;2023-04-24T12:35:21;16.00;61.40
16521;DHT22;8373;48.110;11.522;2023-04-24T12:37:49;16.50;59.90
16521;DHT22;8373;48.110;11.522;2023-04-24T12:40:20;16.60;57.30
16521;DHT22;8373;48.110;11.522;2023-04-24T12:42:48;16.80;57.00
16521;DHT22;8373;48.110;11.522;2023-04-24T12:45:17;16.70;55.30
16521;DHT22;8373;48.110;11.522;2023-04-24T12:47:46;16.40;53.70
16521;DHT22;8373;48.110;11.522;2023-04-24T12:50:14;16.20;54.30
16521;DHT22;8373;48.110;11.522;2023-04-24T12:52:42;16.10;53.10
16521;DHT22;8373;48.110;11.522;2023-04-24T12:55:10;15.90;53.70
16521;DHT22;8373;48.110;11.522;2023-04-24T12:57:39;15.80;57.90
16521;DHT22;8373;48.110;11.522;2023-04-24T13:00:08;15.70;59.50
16521;DHT22;8373;48.110;11.522;2023-04-24T13:02:35;15.70;59.40
16521;DHT22;8373;48.110;11.522;2023-04-24T13:05:02;15.70;59.10
16521;DHT22;8373;48.110;11.522;2023-04-24T13:07:29;15.80;58.80
16521;DHT22;8373;48.110;11.522;2023-04-24T13:09:56;15.70;58.50
16521;DHT22;8373;48.110;11.522;2023-04-24T13:12:24;15.70;58.80
16521;DHT22;8373;48.110;11.522;2023-04-24T13:14:53;15.80;58.40
16521;DHT22;8373;48.110;11.522;2023-04-24T13:17:21;16.20;57.70
16521;DHT22;8373;48.110;11.522;2023-04-24T13:19:49;16.30;56.30
16521;DHT22;8373;48.110;11.522;2023-04-24T13:22:17;16.20;55.40
16521;DHT22;8373;48.110;11.522;2023-04-24T13:24:45;16.00;55.90
16521;DHT22;8373;48.110;11.522;2023-04-24T13:27:14;15.90;56.20
16521;DHT22;8373;48.110;11.522;2023-04-24T13:29:41;15.70;56.50
16521;DHT22;8373;48.110;11.522;2023-04-24T13:32:10;15.60;55.80
16521;DHT22;8373;48.110;11.522;2023-04-24T13:34:37;15.60;54.60
16521;DHT22;8373;48.110;11.522;2023-04-24T13:37:04;15.50;53.60
16521;DHT22;8373;48.110;11.522;2023-04-24T13:39:32;15.30;53.10
16521;DHT22;8373;48.110;11.522;2023-04-24T13:41:59;15.20;53.80
16521;DHT22;8373;48.110;11.522;2023-04-24T13:44:26;15.20;53.60
16521;DHT22;8373;48.110;11.522;2023-04-24T13:46:55;15.10;53.60
16521;DHT22;8373;48.110;11.522;2023-04-24T13:49:24;15.00;53.30
16521;DHT22;8373;48.110;11.522;2023-04-24T13:51:51;15.10;55.20
16521;DHT22;8373;48.110;11.522;2023-04-24T13:54:19;15.20;56.50
16521;DHT22;8373;48.110;11.522;2023-04-24T13:56:46;15.30;57.30
16521;DHT22;8373;48.110;11.522;2023-04-24T13:59:13;15.20;57.00
16521;DHT22;8373;48.110;11.522;2023-04-24T14:01:40;15.20;58.10
16521;DHT22;8373;48.110;11.522;2023-04-24T14:04:07;15.10;57.90
16521;DHT22;8373;48.110;11.522;2023-04-24T14:06:35;15.20;58.30
16521;DHT22;8373;48.110;11.522;2023-04-24T14:09:02;15.20;58.80
16521;DHT22;8373;48.110;11.522;2023-04-24T14:11:30;15.60;58.00
16521;DHT22;8373;48.110;11.522;2023-04-24T14:13:57;15.90;57.90
16521;DHT22;8373;48.110;11.522;2023-04-24T14:16:23;16.00;52.80
16521;DHT22;8373;48.110;11.522;2023-04-24T14:18:50;16.00;51.00
16521;DHT22;8373;48.110;11.522;2023-04-24T14:21:17;15.90;50.70
16521;DHT22;8373;48.110;11.522;2023-04-24T14:23:46;15.80;50.60
16521;DHT22;8373;48.110;11.522;2023-04-24T14:26:13;15.80;50.00
16521;DHT22;8373;48.110;11.522;2023-04-24T14:28:40;16.10;50.70
16521;DHT22;8373;48.110;11.522;2023-04-24T14:31:07;16.30;50.00
16521;DHT22;8373;48.110;11.522;2023-04-24T14:33:34;16.40;49.30
16521;DHT22;8373;48.110;11.522;2023-04-24T14:36:01;16.30;49.10
16521;DHT22;8373;48.110;11.522;2023-04-24T14:38:31;16.30;49.90
16521;DHT22;8373;48.110;11.522;2023-04-24T14:40:59;16.30;48.80
16521;DHT22;8373;48.110;11.522;2023-04-24T14:43:26;16.20;48.60
16521;DHT22;8373;48.110;11.522;2023-04-24T14:45:53;16.10;48.70
16521;DHT22;8373;48.110;11.522;2023-04-24T14:48:20;15.90;48.80
16521;DHT22;8373;48.110;11.522;2023-04-24T14:50:47;15.80;49.30
16521;DHT22;8373;48.110;11.522;2023-04-24T14:53:14;15.80;49.50
16521;DHT22;8373;48.110;11.522;2023-04-24T14:55:41;15.80;48.70
16521;DHT22;8373;48.110;11.522;2023-04-24T14:58:10;15.60;47.20
16521;DHT22;8373;48.110;11.522;2023-04-24T15:00:37;15.50;47.60
16521;DHT22;8373;48.110;11.522;2023-04-24T15:03:04;15.60;47.90
16521;DHT22;8373;48.110;11.522;2023-04-24T15:05:31;15.70;47.80
16521;DHT22;8373;48.110;11.522;2023-04-24T15:07:58;15.80;48.30
16521;DHT22;8373;48.110;11.522;2023-04-24T15:10:25;15.70;47.40
16521;DHT22;8373;48.110;11.522;2023-04-24T15:12:52;15.80;48.00
16521;DHT22;8373;48.110;11.522;2023-04-24T15:15:21;15.80;46.70
16521;DHT22;8373;48.110;11.522;2023-04-24T15:17:48;15.60;46.40
16521;DHT22;8373;48.110;11.522;2023-04-24T15:20:15;15.60;46.90
16521;DHT22;8373;48.110;11.522;2023-04-24T15:22:42;15.60;46.80
16521;DHT22;8373;48.110;11.522;2023-04-24T15:25:09;15.60;46.60
16521;DHT22;8373;48.110;11.522;2023-04-24T15:27:40;15.70;46.10
16521;DHT22;8373;48.110;11.522;2023-04-24T15:30:09;15.90;45.80
16521;DHT22;8373;48.110;11.522;2023-04-24T15:32:38;15.80;44.30
16521;DHT22;8373;48.110;11.522;2023-04-24T15:35:06;15.60;44.50